Time;durP1;ratioP1;P1;durP2;ratioP2;P2;SDS_P1;SDS_P2;PMS_P1;PMS_P2;Temp;Humidity;BMP_temperature;BMP_pressure;BME280_temperature;BME280_humidity;BME280_pressure;Samples;Min_cycle;Max_cycle;Signal;HPM_P1;HPM_P2
2021/12/07 00:01:46;;;;;;;31.60;21.05;;;;;;;2.97;76.99;93576.28;1695607;83;21285;-57
2021/12/07 00:04:13;;;;;;;29.23;20.12;;;;;;;2.97;76.99;93561.92;1679778;83;21104;-57
2021/12/07 00:06:41;;;;;;;30.20;20.02;;;;;;;2.99;76.88;93573.13;1695220;84;21113;-57
2021/12/07 00:09:10;;;;;;;28.85;20.15;;;;;;;2.96;76.72;93565.84;1692106;84;21429;-56
2021/12/07 00:11:37;;;;;;;40.17;23.00;;;;;;;2.93;76.63;93578.91;1687535;84;21036;-56
2021/12/07 00:14:12;;;;;;;33.95;21.70;;;;;;;2.84;76.72;93578.16;1679876;84;21045;-56
2021/12/07 00:16:34;;;;;;;38.42;24.27;;;;;;;2.76;76.86;93581.47;1678496;84;21080;-57
2021/12/07 00:19:02;;;;;;;32.08;21.60;;;;;;;2.71;77.06;93592.25;1688322;83;21165;-57
2021/12/07 00:21:29;;;;;;;28.83;21.15;;;;;;;2.74;77.30;93593.36;1694262;84;21088;-56
2021/12/07 00:23:56;;;;;;;27.30;19.48;;;;;;;2.70;77.46;93591.33;1686878;84;21004;-57
2021/12/07 00:26:23;;;;;;;27.55;20.05;;;;;;;2.73;77.68;93593.19;1692904;83;21056;-58
2021/12/07 00:28:51;;;;;;;26.52;18.70;;;;;;;2.73;77.76;93591.22;1696676;84;20977;-57
2021/12/07 00:31:28;;;;;;;32.83;22.13;;;;;;;2.74;77.65;93589.28;1672929;84;21081;-57
2021/12/07 00:34:08;;;;;;;26.93;19.23;;;;;;;2.73;77.65;93589.12;1691118;83;20969;-56
2021/12/07 00:36:23;;;;;;;29.65;21.25;;;;;;;2.73;77.82;93599.37;1690604;83;21061;-58
2021/12/07 00:38:50;;;;;;;27.55;20.05;;;;;;;2.77;77.89;93599.29;1696371;83;21070;-58
2021/12/07 00:41:17;;;;;;;27.15;18.77;;;;;;;2.80;77.63;93599.80;1696424;83;21014;-57
2021/12/07 00:43:44;;;;;;;26.95;18.92;;;;;;;2.77;77.54;93597.94;1697447;83;21155;-57
2021/12/07 00:46:12;;;;;;;33.80;21.65;;;;;;;2.73;77.46;93591.83;1698205;83;20959;-57
2021/12/07 00:48:39;;;;;;;28.12;18.10;;;;;;;2.73;77.51;93600.72;1678063;83;20975;-56
2021/12/07 00:51:06;;;;;;;26.17;18.35;;;;;;;2.74;77.38;93601.50;1710778;83;21023;-56
2021/12/07 00:53:34;;;;;;;23.77;18.85;;;;;;;2.71;77.27;93609.14;1693641;83;21125;-57
2021/12/07 00:56:03;;;;;;;24.23;17.52;;;;;;;2.69;77.20;93608.81;1667419;83;21153;-56
2021/12/07 00:58:30;;;;;;;25.12;18.27;;;;;;;2.71;77.08;93615.33;1697866;83;21015;-57
2021/12/07 01:01:04;;;;;;;96.35;58.58;;;;;;;2.72;77.13;93630.42;1697913;83;21011;-56
2021/12/07 01:03:33;;;;;;;45.40;30.02;;;;;;;2.76;76.95;93623.56;1703932;83;21534;-57
2021/12/07 01:06:14;;;;;;;42.13;28.07;;;;;;;2.75;77.21;93636.39;1691334;83;21031;-58
2021/12/07 01:24:45;;;;;;;34.23;21.40;;;;;;;2.87;76.47;93606.42;1688259;83;21468;-57
2021/12/07 01:27:16;;;;;;;30.00;21.07;;;;;;;2.88;76.68;93614.13;1698738;83;21066;-57
2021/12/07 01:29:47;;;;;;;25.35;19.20;;;;;;;2.93;76.44;93606.07;1690896;83;21050;-56
2021/12/07 01:32:32;;;;;;;29.42;20.50;;;;;;;2.94;76.29;93602.94;1702758;83;21109;-57
2021/12/07 01:51:45;;;;;;;24.92;18.85;;;;;;;2.91;76.29;93584.76;1682529;84;21012;-57
2021/12/07 02:01:08;;;;;;;43.90;22.80;;;;;;;3.03;76.20;93584.69;1620170;87;21126;-57
2021/12/07 02:03:38;;;;;;;27.07;18.65;;;;;;;3.01;76.16;93585.68;1620077;88;21498;-56
2021/12/07 02:06:06;;;;;;;36.38;21.20;;;;;;;2.99;76.36;93583.41;1682395;84;21074;-56
2021/12/07 02:08:33;;;;;;;41.40;23.47;;;;;;;2.99;76.29;93571.19;1707436;83;21093;-57
2021/12/07 02:11:02;;;;;;;32.03;19.25;;;;;;;2.99;76.33;93577.97;1671163;83;21034;-57
2021/12/07 02:15:58;;;;;;;20.72;16.17;;;;;;;2.95;76.13;93575.17;1688896;83;21074;-57
2021/12/07 02:18:26;;;;;;;24.85;16.70;;;;;;;2.89;76.09;93570.84;1634349;84;21550;-57
2021/12/07 02:20:53;;;;;;;20.62;14.78;;;;;;;2.81;75.96;93563.30;1673419;83;21047;-58
2021/12/07 02:23:19;;;;;;;20.37;15.93;;;;;;;2.71;75.91;93567.81;1695375;83;21064;-58
2021/12/07 02:25:46;;;;;;;21.12;15.98;;;;;;;2.65;76.00;93575.56;1694238;83;21142;-57
2021/12/07 02:28:15;;;;;;;22.87;16.85;;;;;;;2.63;76.33;93570.55;1692852;83;21145;-57
2021/12/07 02:30:43;;;;;;;35.13;21.30;;;;;;;2.66;76.38;93574.38;1701177;83;21189;-57
2021/12/07 02:33:10;;;;;;;29.00;18.85;;;;;;;2.67;76.63;93563.68;1689048;83;21547;-58
2021/12/07 02:35:38;;;;;;;28.50;17.52;;;;;;;2.67;76.58;93563.68;1704235;83;21080;-56
2021/12/07 02:38:05;;;;;;;26.57;18.23;;;;;;;2.64;76.57;93571.30;1708706;83;21161;-57
2021/12/07 02:40:34;;;;;;;23.65;15.25;;;;;;;2.61;76.77;93577.58;1691640;83;20959;-57
2021/12/07 02:43:01;;;;;;;20.88;14.63;;;;;;;2.61;76.79;93580.29;1700236;83;20971;-57
2021/12/07 02:45:29;;;;;;;19.50;14.30;;;;;;;2.58;77.09;93577.84;1679935;83;21617;-56
2021/12/07 02:47:57;;;;;;;18.30;13.72;;;;;;;2.60;76.95;93580.90;1697695;83;21094;-57
2021/12/07 02:50:24;;;;;;;18.80;14.73;;;;;;;2.60;77.01;93580.12;1686670;83;21137;-57
2021/12/07 02:52:51;;;;;;;18.20;14.58;;;;;;;2.60;76.87;93585.55;1699984;83;20963;-57
2021/12/07 02:55:18;;;;;;;16.90;13.25;;;;;;;2.63;76.99;93592.84;1698542;83;21435;-57
2021/12/07 02:57:47;;;;;;;22.07;15.65;;;;;;;2.67;76.81;93597.00;1709131;83;21007;-58
2021/12/07 03:00:20;;;;;;;21.68;15.03;;;;;;;2.71;76.57;93587.42;1685576;83;21597;-57
2021/12/07 03:02:54;;;;;;;25.55;16.77;;;;;;;2.76;76.70;93584.19;1675261;83;21136;-57
2021/12/07 03:05:38;;;;;;;30.17;21.48;;;;;;;2.81;76.62;93589.10;1698042;83;21056;-57
2021/12/07 03:27:10;;;;;;;20.30;15.53;;;;;;;2.61;75.57;93575.64;1688324;84;21460;-59
2021/12/07 03:29:37;;;;;;;18.05;14.10;;;;;;;2.59;75.72;93572.59;1700806;84;21212;-58
2021/12/07 03:32:06;;;;;;;16.80;12.43;;;;;;;2.64;76.20;93580.21;1690238;84;21544;-59
2021/12/07 03:34:33;;;;;;;18.73;13.75;;;;;;;2.77;75.94;93570.78;1686086;84;20988;-58
2021/12/07 03:37:00;;;;;;;25.97;16.80;;;;;;;2.79;75.76;93573.83;1684030;83;20964;-58
2021/12/07 03:39:27;;;;;;;28.17;19.87;;;;;;;2.79;75.55;93573.83;1682419;83;21085;-56
2021/12/07 03:41:54;;;;;;;28.83;18.52;;;;;;;2.80;75.54;93581.56;1688598;83;22023;-58
2021/12/07 03:44:22;;;;;;;24.47;17.10;;;;;;;2.79;75.36;93572.47;1696371;83;20998;-59
2021/12/07 03:46:49;;;;;;;25.60;18.00;;;;;;;2.84;75.64;93581.48;1688908;83;21112;-59
2021/12/07 03:49:16;;;;;;;23.95;17.40;;;;;;;2.89;75.64;93578.24;1693752;83;21026;-60
2021/12/07 03:51:43;;;;;;;25.65;17.92;;;;;;;2.91;75.53;93574.51;1702130;83;21590;-59
2021/12/07 03:54:10;;;;;;;31.15;19.85;;;;;;;2.95;75.51;93580.60;1698099;83;21144;-57
2021/12/07 03:56:37;;;;;;;25.25;17.32;;;;;;;3.02;75.23;93582.55;1695575;83;21001;-58
2021/12/07 03:59:04;;;;;;;22.32;14.45;;;;;;;3.05;75.27;93576.26;1706693;83;21524;-59
2021/12/07 04:01:31;;;;;;;24.20;17.15;;;;;;;3.13;75.26;93582.27;1696480;83;21573;-59
2021/12/07 04:04:01;;;;;;;22.05;15.83;;;;;;;3.21;75.36;93587.70;1699192;83;21105;-58
2021/12/07 04:06:27;;;;;;;25.88;14.63;;;;;;;3.25;74.97;93582.94;1702012;83;21081;-60
2021/12/07 04:08:53;;;;;;;26.70;15.93;;;;;;;3.26;74.50;93584.45;1679749;83;21061;-60
2021/12/07 04:11:20;;;;;;;44.08;28.32;;;;;;;3.21;74.27;93582.27;1621969;87;21198;-59
2021/12/07 04:13:47;;;;;;;45.95;32.13;;;;;;;3.14;74.27;93585.16;1681672;84;21097;-59
2021/12/07 04:16:16;;;;;;;34.43;25.10;;;;;;;3.07;74.47;93585.34;1682697;84;21018;-59
2021/12/07 04:18:45;;;;;;;22.20;16.42;;;;;;;2.98;74.62;93585.18;1675815;84;21153;-59
2021/12/07 04:21:11;;;;;;;20.35;14.73;;;;;;;2.87;74.90;93584.70;1682476;84;21442;-59
2021/12/07 04:23:38;;;;;;;17.92;13.90;;;;;;;2.81;75.44;93589.10;1680512;84;21018;-59
2021/12/07 04:26:09;;;;;;;21.85;16.20;;;;;;;2.81;75.56;93585.80;1680452;84;21113;-58
2021/12/07 04:28:37;;;;;;;21.77;16.20;;;;;;;2.81;76.00;93589.88;1668351;85;21015;-58
2021/12/07 04:31:04;;;;;;;21.73;17.02;;;;;;;2.86;76.08;93589.97;1644802;86;21151;-59
2021/12/07 04:33:31;;;;;;;23.73;17.42;;;;;;;2.81;76.22;93592.59;1621829;87;21048;-59
2021/12/07 04:35:58;;;;;;;27.75;21.93;;;;;;;2.79;76.51;93591.48;1632265;86;21544;-59
2021/12/07 04:38:25;;;;;;;21.17;17.40;;;;;;;2.77;76.54;93592.50;1613660;86;21043;-59
2021/12/07 04:40:52;;;;;;;23.77;16.95;;;;;;;2.72;76.77;93593.02;1685537;83;21034;-59
2021/12/07 04:43:18;;;;;;;24.35;17.27;;;;;;;2.68;76.98;93597.78;1690026;83;22489;-60
2021/12/07 04:59:09;;;;;;;34.30;23.40;;;;;;;2.72;77.27;93603.27;1678320;83;21026;-58
2021/12/07 05:01:36;;;;;;;40.98;25.95;;;;;;;2.70;77.51;93603.55;1687070;83;21180;-59
2021/12/07 05:04:11;;;;;;;49.15;31.97;;;;;;;2.73;77.38;93606.16;1707501;83;21714;-58
2021/12/07 05:06:34;;;;;;;26.40;19.32;;;;;;;2.72;77.55;93605.98;1691055;83;20959;-60
2021/12/07 05:09:19;;;;;;;20.05;14.75;;;;;;;2.73;77.58;93604.80;1706698;83;21161;-59
2021/12/07 05:12:04;;;;;;;23.55;16.67;;;;;;;2.72;77.47;93610.67;1706294;83;20966;-59
2021/12/07 05:14:27;;;;;;;26.12;18.60;;;;;;;2.69;77.39;93615.59;1705821;83;20967;-59
2021/12/07 05:38:31;;;;;;;50.95;32.48;;;;;;;3.18;76.79;93600.18;1706569;83;21520;-58
2021/12/07 05:40:58;;;;;;;40.25;29.52;;;;;;;3.27;76.24;93602.28;1680084;84;20980;-58
2021/12/07 05:43:25;;;;;;;33.00;23.67;;;;;;;3.28;76.10;93603.81;1679779;84;21096;-58
2021/12/07 05:45:52;;;;;;;24.00;19.20;;;;;;;3.29;75.95;93603.39;1698605;83;20965;-58
2021/12/07 05:48:19;;;;;;;29.85;20.40;;;;;;;3.23;75.57;93608.41;1688539;83;21240;-63
2021/12/07 05:50:45;;;;;;;25.25;19.25;;;;;;;3.09;75.73;93614.20;1708256;83;21006;-61
2021/12/07 05:53:13;;;;;;;22.37;18.05;;;;;;;2.98;75.73;93602.83;1708585;83;21526;-60
2021/12/07 05:55:41;;;;;;;24.47;17.50;;;;;;;2.86;76.01;93608.97;1687927;83;21053;-59
2021/12/07 05:58:12;;;;;;;25.72;18.20;;;;;;;2.75;76.23;93601.67;1686656;83;21502;-59
2021/12/07 06:00:42;;;;;;;27.55;20.77;;;;;;;2.68;76.73;93605.92;1710436;83;21172;-59
2021/12/07 06:03:09;;;;;;;29.40;21.48;;;;;;;2.66;77.19;93606.34;1708003;83;20988;-60
2021/12/07 06:05:36;;;;;;;26.82;19.45;;;;;;;2.72;77.35;93607.95;1711590;82;21015;-60
2021/12/07 06:08:04;;;;;;;28.47;19.32;;;;;;;2.72;77.22;93615.48;1706861;83;21637;-57
2021/12/07 06:10:31;;;;;;;23.95;18.65;;;;;;;2.64;77.13;93616.08;1708220;83;21077;-60
2021/12/07 06:12:58;;;;;;;28.92;22.37;;;;;;;2.55;77.16;93621.35;1679323;83;21152;-62
2021/12/07 06:15:27;;;;;;;30.20;24.50;;;;;;;2.49;77.69;93622.44;1669475;83;21245;-59
2021/12/07 06:17:54;;;;;;;27.73;22.67;;;;;;;2.50;78.01;93628.04;1696361;83;21094;-61
2021/12/07 06:20:21;;;;;;;27.80;21.40;;;;;;;2.58;78.22;93627.28;1690857;83;21726;-59
2021/12/07 06:22:48;;;;;;;32.28;24.72;;;;;;;2.61;77.98;93629.15;1691270;82;21065;-58
2021/12/07 06:25:14;;;;;;;36.98;24.40;;;;;;;2.57;78.06;93628.47;1691641;82;21130;-62
2021/12/07 06:27:42;;;;;;;32.75;23.55;;;;;;;2.62;78.12;93619.82;1728805;82;21035;-57
2021/12/07 06:30:10;;;;;;;29.40;25.00;;;;;;;2.63;78.06;93619.41;1676634;84;20944;-59
2021/12/07 06:32:37;;;;;;;63.45;39.70;;;;;;;2.64;78.19;93622.29;1715519;82;21120;-63
2021/12/07 06:35:05;;;;;;;34.88;24.90;;;;;;;2.69;78.34;93618.31;1707235;82;21108;-58
2021/12/07 06:37:32;;;;;;;33.80;22.82;;;;;;;2.76;77.89;93618.12;1711106;82;21212;-59
2021/12/07 06:39:59;;;;;;;28.40;21.62;;;;;;;2.68;77.65;93619.50;1707989;82;21042;-58
2021/12/07 06:42:26;;;;;;;58.00;37.80;;;;;;;2.57;77.65;93618.98;1681841;82;21023;-60
2021/12/07 06:44:53;;;;;;;39.05;27.60;;;;;;;2.54;77.98;93625.25;1682985;82;21050;-58
2021/12/07 06:47:19;;;;;;;33.55;24.47;;;;;;;2.62;78.20;93623.89;1706447;82;20990;-58
2021/12/07 06:49:49;;;;;;;46.10;30.85;;;;;;;2.68;78.11;93612.71;1702954;82;20984;-57
2021/12/07 06:52:15;;;;;;;37.73;27.42;;;;;;;2.71;77.99;93623.47;1711670;82;21005;-61
2021/12/07 06:54:42;;;;;;;42.67;29.60;;;;;;;2.78;77.94;93617.88;1679707;82;21035;-61
2021/12/07 06:57:09;;;;;;;115.88;55.70;;;;;;;2.84;77.84;93620.86;1707895;82;21076;-60
2021/12/07 06:59:36;;;;;;;108.20;57.58;;;;;;;2.93;77.65;93628.58;1703844;82;21460;-59
2021/12/07 07:02:08;;;;;;;86.22;50.58;;;;;;;2.98;77.40;93628.05;1697842;81;21192;-61
2021/12/07 07:04:35;;;;;;;90.60;54.48;;;;;;;2.98;77.09;93629.41;1686038;82;21058;-57
2021/12/07 07:07:04;;;;;;;69.17;43.50;;;;;;;2.98;77.08;93633.48;1708713;81;21047;-59
2021/12/07 07:09:33;;;;;;;44.55;29.50;;;;;;;2.97;76.76;93627.11;1703094;82;21129;-59
2021/12/07 07:12:00;;;;;;;34.38;25.15;;;;;;;2.89;76.81;93628.48;1680860;82;22368;-57
2021/12/07 07:14:26;;;;;;;51.73;34.18;;;;;;;2.86;76.74;93625.27;1705530;82;21789;-57
2021/12/07 07:16:53;;;;;;;69.27;41.53;;;;;;;2.82;77.11;93633.48;1711143;82;21106;-61
2021/12/07 07:19:20;;;;;;;49.90;34.10;;;;;;;2.89;77.08;93631.20;1676529;84;21071;-61
2021/12/07 07:21:50;;;;;;;34.10;26.20;;;;;;;2.97;76.73;93633.32;1629048;84;21724;-59
2021/12/07 07:24:19;;;;;;;36.88;26.45;;;;;;;2.96;76.84;93634.52;1648935;84;21049;-61
2021/12/07 07:26:47;;;;;;;33.85;27.25;;;;;;;2.97;76.83;93636.61;1610090;84;22013;-58
2021/12/07 07:29:14;;;;;;;47.67;32.03;;;;;;;3.00;76.56;93635.76;1632407;84;21035;-57
2021/12/07 07:31:41;;;;;;;35.85;25.23;;;;;;;3.00;76.49;93633.05;1625391;85;21481;-60
2021/12/07 07:34:16;;;;;;;31.57;22.67;;;;;;;3.00;76.51;93632.46;1610188;85;21078;-61
2021/12/07 07:36:43;;;;;;;29.57;21.73;;;;;;;3.03;76.46;93639.75;1615932;84;21109;-57
2021/12/07 07:39:11;;;;;;;36.95;24.92;;;;;;;3.05;76.37;93637.37;1616152;85;21151;-57
2021/12/07 07:41:39;;;;;;;46.60;32.40;;;;;;;3.07;76.28;93635.60;1630136;85;21097;-60
2021/12/07 07:44:05;;;;;;;38.28;26.55;;;;;;;3.14;76.37;93635.41;1627291;84;21065;-57
2021/12/07 07:46:34;;;;;;;30.25;23.47;;;;;;;3.17;75.92;93634.55;1618716;84;21172;-59
2021/12/07 07:49:04;;;;;;;41.85;29.48;;;;;;;3.12;75.80;93640.52;1616833;85;21042;-62
2021/12/07 07:51:35;;;;;;;41.37;28.40;;;;;;;3.10;76.28;93642.89;1689808;82;21086;-58
2021/12/07 07:54:03;;;;;;;39.60;26.85;;;;;;;3.22;76.32;93643.57;1688018;82;21529;-57
2021/12/07 07:56:29;;;;;;;45.17;28.20;;;;;;;3.29;75.76;93645.52;1690128;82;21002;-59
2021/12/07 07:58:56;;;;;;;36.60;26.00;;;;;;;3.29;75.60;93650.17;1689861;81;21073;-59
2021/12/07 08:01:29;;;;;;;45.17;28.17;;;;;;;3.32;75.52;93646.59;1692430;81;21134;-59
2021/12/07 08:03:54;;;;;;;41.15;28.52;;;;;;;3.32;75.60;93645.23;1682367;82;21584;-63
2021/12/07 08:06:20;;;;;;;51.20;31.62;;;;;;;3.30;75.49;93648.40;1669024;82;21080;-57
2021/12/07 08:08:47;;;;;;;51.40;32.93;;;;;;;3.27;75.47;93650.59;1692679;82;22468;-60
2021/12/07 08:11:16;;;;;;;54.77;32.25;;;;;;;3.29;75.46;93654.25;1681589;82;21017;-57
2021/12/07 08:13:45;;;;;;;69.30;35.43;;;;;;;3.34;75.33;93654.50;1679823;82;21869;-58
2021/12/07 08:16:15;;;;;;;66.50;35.58;;;;;;;3.32;75.14;93653.39;1668173;82;21831;-59
2021/12/07 08:18:49;;;;;;;94.50;50.92;;;;;;;3.30;75.25;93653.83;1697958;82;20967;-56
2021/12/07 08:21:16;;;;;;;81.00;45.70;;;;;;;3.31;75.44;93654.58;1656026;84;21165;-60
2021/12/07 08:23:43;;;;;;;61.30;37.70;;;;;;;3.36;75.49;93662.98;1637033;85;21153;-58
2021/12/07 08:26:12;;;;;;;58.38;33.50;;;;;;;3.40;75.22;93665.63;1686743;83;21096;-58
2021/12/07 08:28:40;;;;;;;55.80;32.80;;;;;;;3.38;75.17;93666.65;1693865;82;21077;-60
2021/12/07 08:31:08;;;;;;;40.85;26.20;;;;;;;3.39;75.32;93664.09;1692290;83;21880;-62
2021/12/07 08:33:35;;;;;;;39.98;25.92;;;;;;;3.48;75.11;93661.69;1654536;82;21066;-63
2021/12/07 08:36:03;;;;;;;46.90;29.98;;;;;;;3.51;74.82;93667.62;1671726;83;21073;-62
2021/12/07 08:38:30;;;;;;;41.55;27.20;;;;;;;3.53;74.76;93661.77;1653230;84;21102;-60
2021/12/07 08:40:59;;;;;;;52.30;33.38;;;;;;;3.55;74.85;93672.36;1636006;85;21727;-62
2021/12/07 08:43:28;;;;;;;52.70;32.88;;;;;;;3.63;75.10;93672.36;1628790;85;21495;-62
2021/12/07 08:45:57;;;;;;;44.25;28.57;;;;;;;3.76;74.58;93663.66;1622766;85;21492;-61
2021/12/07 08:48:23;;;;;;;31.10;21.65;;;;;;;3.80;74.13;93664.32;1651903;83;21808;-59
2021/12/07 08:50:52;;;;;;;32.93;23.67;;;;;;;3.81;73.96;93661.77;1653050;85;21491;-60
2021/12/07 08:53:21;;;;;;;43.02;28.90;;;;;;;3.90;74.06;93659.17;1640211;85;21109;-61
2021/12/07 08:59:39;;;;;;;44.55;29.07;;;;;;;4.02;73.23;93657.09;1684200;82;20978;-61
2021/12/07 09:01:03;;;;;;;47.45;30.00;;;;;;;3.96;73.21;93654.75;1703001;82;21540;-56
2021/12/07 09:03:30;;;;;;;55.23;33.65;;;;;;;3.92;73.21;93659.53;1698016;83;21170;-59
2021/12/07 09:05:58;;;;;;;39.63;26.45;;;;;;;3.91;73.09;93651.78;1673063;84;21087;-59
2021/12/07 09:08:25;;;;;;;29.48;21.23;;;;;;;3.87;73.18;93656.56;1694142;84;21666;-58
2021/12/07 09:10:52;;;;;;;28.62;20.40;;;;;;;3.83;73.22;93649.86;1701565;82;21101;-60
2021/12/07 09:13:20;;;;;;;28.85;20.25;;;;;;;3.87;73.31;93645.08;1699421;82;21860;-59
2021/12/07 09:15:47;;;;;;;23.60;17.62;;;;;;;3.94;73.14;93642.17;1683189;83;21124;-59
2021/12/07 09:18:14;;;;;;;27.65;19.25;;;;;;;4.05;73.01;93646.70;1674851;85;21127;-60
2021/12/07 09:20:42;;;;;;;60.38;38.30;;;;;;;4.16;72.80;93649.89;1673756;84;20982;-60
2021/12/07 09:23:11;;;;;;;57.05;36.35;;;;;;;4.26;72.26;93643.36;1707209;82;21014;-60
2021/12/07 09:25:38;;;;;;;34.27;23.30;;;;;;;4.32;72.06;93640.88;1689170;84;21158;-59
2021/12/07 09:28:06;;;;;;;32.15;23.10;;;;;;;4.35;71.64;93637.28;1675639;84;21080;-60
2021/12/07 09:30:35;;;;;;;28.00;20.55;;;;;;;4.23;71.36;93627.91;1689793;82;21474;-60
2021/12/07 09:33:06;;;;;;;34.35;21.55;;;;;;;4.13;71.28;93634.44;1688679;82;21158;-59
2021/12/07 09:35:35;;;;;;;28.10;18.98;;;;;;;4.04;71.72;93634.30;1681457;83;21574;-58
2021/12/07 09:38:03;;;;;;;27.48;18.85;;;;;;;4.00;71.97;93628.20;1701246;84;21081;-60
2021/12/07 09:40:31;;;;;;;22.67;16.97;;;;;;;3.98;71.78;93631.17;1687602;83;21062;-58
2021/12/07 09:43:02;;;;;;;20.48;15.95;;;;;;;3.88;71.90;93624.84;1699301;83;21334;-58
2021/12/07 09:45:30;;;;;;;44.65;27.07;;;;;;;3.85;72.30;93622.98;1624733;84;21095;-64
2021/12/07 09:48:04;;;;;;;52.75;31.75;;;;;;;3.84;72.12;93625.55;1629687;86;21030;-61
2021/12/07 09:50:34;;;;;;;58.48;34.85;;;;;;;3.83;72.38;93623.27;1620230;86;21135;-63
2021/12/07 09:53:03;;;;;;;44.58;28.38;;;;;;;3.87;72.36;93614.41;1650222;86;21080;-60
2021/12/07 09:55:32;;;;;;;31.00;22.10;;;;;;;3.90;72.12;93614.90;1647754;85;21174;-63
2021/12/07 09:57:59;;;;;;;21.85;16.50;;;;;;;3.84;72.12;93614.66;1634129;86;21391;-62
2021/12/07 10:00:26;;;;;;;27.17;17.45;;;;;;;3.79;72.21;93605.69;1666375;85;21062;-57
2021/12/07 10:02:53;;;;;;;25.02;18.17;;;;;;;3.78;72.49;93600.08;1659828;85;21338;-59
2021/12/07 10:05:20;;;;;;;29.25;21.42;;;;;;;3.82;72.53;93596.66;1633242;86;21039;-59
2021/12/07 10:07:50;;;;;;;34.83;22.05;;;;;;;3.88;72.47;93600.36;1633561;86;21622;-59
2021/12/07 10:10:28;;;;;;;41.30;26.48;;;;;;;3.90;72.34;93599.94;1701079;83;20994;-60
2021/12/07 10:12:55;;;;;;;51.75;29.82;;;;;;;3.91;72.35;93591.94;1681573;83;21056;-58
2021/12/07 10:15:24;;;;;;;47.73;29.35;;;;;;;3.97;72.13;93590.98;1695936;83;21753;-59
2021/12/07 10:18:16;;;;;;;35.38;21.85;;;;;;;4.00;71.83;93582.53;1678543;83;21541;-59
2021/12/07 10:20:52;;;;;;;27.67;20.52;;;;;;;3.97;72.06;93581.45;1705937;83;21405;-57
2021/12/07 10:23:34;;;;;;;38.83;28.98;;;;;;;3.99;72.05;93588.59;1699746;82;20959;-58
2021/12/07 10:26:06;;;;;;;32.10;22.98;;;;;;;4.09;72.27;93588.86;1690808;83;21040;-58
2021/12/07 10:28:53;;;;;;;23.47;17.82;;;;;;;4.16;71.61;93590.61;1687424;84;20946;-59
2021/12/07 10:31:29;;;;;;;20.45;14.35;;;;;;;4.08;71.53;93592.77;1691834;83;21092;-59
2021/12/07 10:34:03;;;;;;;30.62;19.98;;;;;;;4.00;71.70;93591.47;1692480;84;21716;-58
2021/12/07 10:36:34;;;;;;;23.32;16.17;;;;;;;3.97;72.07;93589.62;1708065;82;21595;-58
2021/12/07 10:39:12;;;;;;;23.52;17.20;;;;;;;4.01;72.05;93592.99;1730035;82;21128;-57
2021/12/07 10:41:46;;;;;;;16.37;13.30;;;;;;;3.98;72.08;93595.22;1725238;82;21082;-58
2021/12/07 10:44:18;;;;;;;16.97;13.05;;;;;;;3.90;71.75;93583.00;1681279;83;21892;-60
2021/12/07 10:46:58;;;;;;;18.80;15.78;;;;;;;3.82;71.94;93574.90;1699571;83;21245;-58
2021/12/07 10:49:46;;;;;;;35.68;25.12;;;;;;;3.71;72.11;93572.32;1713738;82;21069;-58
2021/12/07 10:52:18;;;;;;;21.55;15.13;;;;;;;3.65;72.72;93577.52;1726741;81;21080;-58
2021/12/07 10:54:59;;;;;;;15.50;12.18;;;;;;;3.68;72.55;93580.73;1702588;82;21057;-58
2021/12/07 10:57:45;;;;;;;20.80;16.30;;;;;;;3.67;72.71;93575.13;1719811;82;21530;-63
2021/12/07 11:00:26;;;;;;;18.57;15.03;;;;;;;3.73;72.83;93571.29;1722687;82;21158;-61
2021/12/07 11:03:05;;;;;;;16.55;13.22;;;;;;;3.82;72.70;93569.45;1676036;83;21117;-61
2021/12/07 11:05:40;;;;;;;17.50;12.25;;;;;;;3.88;72.02;93574.52;1696185;83;21501;-59
2021/12/07 11:08:09;;;;;;;13.00;11.33;;;;;;;3.91;71.83;93568.20;1700722;83;21089;-60
2021/12/07 11:10:44;;;;;;;14.30;11.03;;;;;;;3.88;71.39;93563.64;1685668;83;21514;-61
2021/12/07 11:13:16;;;;;;;15.95;12.35;;;;;;;3.81;71.39;93569.88;1678681;83;21097;-61
2021/12/07 11:15:54;;;;;;;17.77;13.13;;;;;;;3.74;71.59;93568.15;1697214;83;21360;-59
2021/12/07 11:18:33;;;;;;;17.90;11.78;;;;;;;3.68;71.61;93567.14;1665888;84;21055;-59
2021/12/07 11:21:16;;;;;;;14.55;10.85;;;;;;;3.64;71.72;93566.48;1662454;83;21691;-58
2021/12/07 11:23:48;;;;;;;18.35;13.40;;;;;;;3.58;71.62;93569.58;1699268;82;22130;-57
2021/12/07 11:31:53;;;;;;;14.75;10.95;;;;;;;3.61;71.59;93570.06;1715816;82;20998;-58
2021/12/07 11:34:27;;;;;;;15.75;11.43;;;;;;;3.64;71.15;93571.92;1730488;82;21620;-58
2021/12/07 11:37:04;;;;;;;10.85;9.70;;;;;;;3.59;70.92;93568.96;1705155;82;20993;-58
2021/12/07 11:39:42;;;;;;;11.75;10.03;;;;;;;3.52;70.87;93568.55;1676891;84;22312;-56
2021/12/07 11:42:19;;;;;;;12.20;9.05;;;;;;;3.48;70.92;93562.47;1656719;84;21064;-60
2021/12/07 11:45:00;;;;;;;16.93;11.68;;;;;;;3.48;70.57;93564.44;1669444;83;21078;-61
2021/12/07 11:47:35;;;;;;;15.45;11.60;;;;;;;3.39;70.84;93565.64;1690535;84;21547;-63
2021/12/07 11:50:22;;;;;;;19.25;12.90;;;;;;;3.36;71.12;93565.73;1698914;82;21586;-61
2021/12/07 11:52:59;;;;;;;15.88;12.15;;;;;;;3.34;71.27;93561.32;1674805;83;21006;-61
2021/12/07 11:55:31;;;;;;;12.00;9.18;;;;;;;3.36;71.04;93571.16;1677939;84;21069;-60
2021/12/07 11:57:58;;;;;;;15.38;10.98;;;;;;;3.34;70.78;93565.40;1700582;83;21013;-58
2021/12/07 12:00:34;;;;;;;17.05;11.20;;;;;;;3.34;70.62;93559.96;1703078;82;21003;-58
2021/12/07 12:02:59;;;;;;;19.87;13.13;;;;;;;3.33;70.36;93566.59;1705325;82;21053;-60
2021/12/07 12:05:28;;;;;;;24.07;18.20;;;;;;;3.26;70.60;93567.54;1680386;84;21932;-60
2021/12/07 12:07:56;;;;;;;19.40;14.00;;;;;;;3.24;71.31;93569.92;1696009;83;21105;-60
2021/12/07 12:10:25;;;;;;;21.65;14.63;;;;;;;3.29;71.24;93572.72;1701173;82;21072;-61
2021/12/07 12:13:40;;;;;;;19.45;14.60;;;;;;;3.20;71.15;93568.52;1677714;84;21036;-61
2021/12/07 12:16:25;;;;;;;15.70;11.95;;;;;;;3.18;71.23;93576.31;1689535;83;21504;-60
2021/12/07 12:19:32;;;;;;;13.08;11.08;;;;;;;3.05;71.07;93570.08;1681563;83;21491;-62
2021/12/07 12:22:17;;;;;;;14.98;12.00;;;;;;;2.97;71.23;93570.07;1690570;84;21095;-62
2021/12/07 12:24:54;;;;;;;14.80;11.85;;;;;;;2.94;71.33;93577.72;1692334;83;21039;-61
2021/12/07 12:27:27;;;;;;;18.95;13.08;;;;;;;2.88;71.50;93577.47;1692494;84;21128;-59
2021/12/07 12:29:59;;;;;;;18.15;12.20;;;;;;;2.85;71.82;93569.43;1685378;83;21068;-62
2021/12/07 12:32:30;;;;;;;16.45;12.25;;;;;;;2.92;72.14;93566.52;1686606;84;21132;-61
2021/12/07 12:34:57;;;;;;;21.95;16.52;;;;;;;3.02;72.11;93572.30;1688602;84;21520;-61
2021/12/07 12:37:29;;;;;;;41.35;32.38;;;;;;;3.07;72.17;93575.23;1694962;84;21113;-61
2021/12/07 12:43:19;;;;;;;22.70;16.40;;;;;;;3.21;72.94;93570.79;1688258;83;21630;-61
2021/12/07 12:45:54;;;;;;;27.32;18.87;;;;;;;3.34;72.13;93572.19;1693484;83;21703;-59
2021/12/07 12:48:22;;;;;;;;;;;;;;;3.38;71.68;93575.59;1657928;84;21212;-61
2021/12/07 12:50:50;;;;;;;17.73;13.35;;;;;;;3.32;71.96;93574.58;1683323;83;20173;-59
2021/12/07 12:53:31;;;;;;;11.00;8.68;;;;;;;3.29;71.68;93585.73;1694090;83;21054;-62
2021/12/07 12:56:23;;;;;;;8.40;7.33;;;;;;;3.27;70.93;93570.42;1698912;83;21073;-60
2021/12/07 12:58:57;;;;;;;7.62;6.90;;;;;;;3.20;70.09;93582.10;1694648;83;21096;-62
2021/12/07 13:01:33;;;;;;;13.62;8.98;;;;;;;3.10;69.97;93585.27;1703110;83;21026;-58
2021/12/07 13:04:23;;;;;;;23.00;15.38;;;;;;;2.94;70.53;93591.30;1667371;84;21414;-61
2021/12/07 13:09:43;;;;;;;13.30;10.03;;;;;;;2.73;71.17;93589.12;1691933;83;21034;-59
2021/12/07 13:12:18;;;;;;;13.28;9.30;;;;;;;2.53;71.65;93591.16;1682335;83;21129;-60
2021/12/07 13:15:00;;;;;;;13.03;9.80;;;;;;;2.50;72.01;93601.52;1695831;83;21073;-60
2021/12/07 13:17:45;;;;;;;15.53;12.55;;;;;;;2.41;72.44;93602.67;1680603;83;21612;-59
2021/12/07 13:20:31;;;;;;;14.80;11.53;;;;;;;2.39;72.60;93600.98;1703633;83;21057;-59
2021/12/07 13:23:12;;;;;;;19.77;15.38;;;;;;;2.50;72.97;93611.75;1710296;83;20959;-59
2021/12/07 13:25:50;;;;;;;14.50;11.63;;;;;;;2.64;72.45;93610.08;1706649;83;21232;-59
2021/12/07 13:28:35;;;;;;;15.78;11.78;;;;;;;2.68;72.46;93611.36;1689152;83;21034;-57
2021/12/07 13:31:17;;;;;;;16.62;11.60;;;;;;;2.67;72.33;93613.90;1712125;83;21130;-60
2021/12/07 13:33:51;;;;;;;14.55;12.33;;;;;;;2.59;72.48;93627.45;1686258;83;21860;-60